Time;durP1;ratioP1;P1;durP2;ratioP2;P2;SDS_P1;SDS_P2;PMS_P1;PMS_P2;Temp;Humidity;BMP_temperature;BMP_pressure;BME280_temperature;BME280_humidity;BME280_pressure;Samples;Min_cycle;Max_cycle;Signal;HPM_P1;HPM_P2
2022/01/14 00:01:06;;;;;;;58.95;19.92;;;5.10;99.90;;;;;;5072929;28;20047;-86
2022/01/14 00:03:31;;;;;;;58.28;21.27;;;5.10;99.90;;;;;;5074899;28;20055;-86
2022/01/14 00:05:57;;;;;;;58.75;21.52;;;5.10;99.90;;;;;;5074513;28;20048;-86
2022/01/14 00:08:23;;;;;;;62.30;21.00;;;5.10;99.90;;;;;;5073335;28;20043;-86
2022/01/14 00:10:49;;;;;;;48.30;19.48;;;5.10;99.90;;;;;;5055132;28;20028;-86
2022/01/14 00:13:47;;;;;;;44.47;17.85;;;5.10;99.90;;;;;;5074539;28;20024;-86
2022/01/14 00:16:13;;;;;;;71.57;22.08;;;5.10;99.90;;;;;;5057820;28;20044;-86
2022/01/14 00:18:38;;;;;;;56.13;20.05;;;5.10;99.90;;;;;;5083247;28;20033;-86
2022/01/14 00:21:04;;;;;;;41.60;18.13;;;5.10;99.90;;;;;;5064901;28;20063;-86
2022/01/14 00:23:35;;;;;;;53.58;20.75;;;5.10;99.90;;;;;;5057618;28;20037;-87
2022/01/14 00:31:42;;;;;;;57.95;22.83;;;5.00;99.90;;;;;;5058424;28;20503;-86
2022/01/14 00:34:09;;;;;;;60.90;21.85;;;4.90;99.90;;;;;;5044003;28;20427;-85
2022/01/14 00:36:35;;;;;;;57.58;21.85;;;5.00;99.90;;;;;;5076366;28;20049;-86
2022/01/14 00:39:00;;;;;;;54.58;20.30;;;5.00;99.90;;;;;;5058614;28;20503;-86
2022/01/14 00:41:26;;;;;;;57.60;21.83;;;5.10;99.90;;;;;;5058777;28;20040;-85
2022/01/14 00:43:59;;;;;;;58.97;20.92;;;5.10;99.90;;;;;;5025316;28;20047;-86
2022/01/14 00:46:25;;;;;;;60.25;21.95;;;5.00;99.90;;;;;;5058589;28;20037;-86
2022/01/14 00:48:50;;;;;;;57.00;21.25;;;5.00;99.90;;;;;;5058420;28;20462;-86
2022/01/14 00:51:16;;;;;;;63.50;23.38;;;5.00;99.90;;;;;;5025331;28;20446;-86
2022/01/14 00:53:41;;;;;;;70.45;23.83;;;5.10;99.90;;;;;;5074923;28;20606;-86
2022/01/14 00:56:20;;;;;;;61.42;21.08;;;5.00;99.90;;;;;;5075983;28;20052;-86
2022/01/14 01:01:30;;;;;;;69.07;23.08;;;5.00;99.90;;;;;;5047091;28;20048;-86
2022/01/14 01:03:56;;;;;;;65.25;23.65;;;5.00;99.90;;;;;;5058273;28;20033;-86
2022/01/14 01:06:22;;;;;;;72.75;23.13;;;5.10;99.90;;;;;;5058164;28;20041;-86
2022/01/14 01:08:50;;;;;;;64.05;21.55;;;5.00;99.90;;;;;;5058290;28;20500;-86
2022/01/14 01:11:23;;;;;;;66.03;24.17;;;5.10;99.90;;;;;;5058630;28;20033;-86
2022/01/14 01:13:58;;;;;;;80.28;25.02;;;5.10;99.90;;;;;;5075978;28;20032;-85
2022/01/14 01:16:24;;;;;;;60.42;23.10;;;5.10;99.90;;;;;;5057947;28;20047;-86
2022/01/14 01:18:49;;;;;;;76.07;25.13;;;5.10;99.90;;;;;;5040307;28;20028;-86
2022/01/14 01:21:15;;;;;;;50.33;21.48;;;5.10;99.90;;;;;;5057687;28;20057;-86
2022/01/14 01:23:40;;;;;;;67.10;24.58;;;5.10;99.90;;;;;;5057826;28;20043;-86
2022/01/14 01:26:13;;;;;;;64.78;23.40;;;5.00;99.90;;;;;;5041675;28;20033;-86
2022/01/14 01:28:54;;;;;;;80.40;26.15;;;5.00;99.90;;;;;;5075685;28;20032;-86
2022/01/14 01:31:35;;;;;;;67.72;22.63;;;5.10;99.90;;;;;;5060057;28;20388;-86
2022/01/14 01:34:10;;;;;;;64.50;23.35;;;5.00;99.90;;;;;;5059698;28;20067;-86
2022/01/14 01:36:38;;;;;;;64.60;23.83;;;5.00;99.90;;;;;;5075417;28;20123;-85
2022/01/14 01:39:06;;;;;;;81.43;23.20;;;5.10;99.90;;;;;;5075649;28;20469;-86
2022/01/14 01:41:35;;;;;;;68.28;22.40;;;5.00;99.90;;;;;;5074212;28;20029;-86
2022/01/14 01:44:01;;;;;;;59.58;22.75;;;5.10;99.90;;;;;;5080795;28;20547;-86
2022/01/14 01:46:26;;;;;;;54.00;21.65;;;5.10;99.90;;;;;;5075333;28;20040;-86
2022/01/14 01:48:53;;;;;;;51.75;20.92;;;5.10;99.90;;;;;;5056572;28;20043;-86
2022/01/14 01:51:20;;;;;;;75.57;24.70;;;5.10;99.90;;;;;;5073871;28;20065;-86
2022/01/14 01:53:47;;;;;;;47.05;21.25;;;5.00;99.90;;;;;;5074573;28;20103;-86
2022/01/14 01:56:13;;;;;;;67.78;23.42;;;5.00;99.90;;;;;;5074946;28;20075;-85
2022/01/14 01:58:39;;;;;;;69.82;24.00;;;5.00;99.90;;;;;;5040528;28;20479;-86
2022/01/14 02:01:06;;;;;;;49.85;19.60;;;5.00;99.90;;;;;;5040351;28;20032;-86
2022/01/14 02:03:34;;;;;;;66.20;22.35;;;5.00;99.90;;;;;;5073575;28;20037;-86
2022/01/14 02:06:01;;;;;;;52.47;21.50;;;5.00;99.90;;;;;;5056806;28;20064;-86
2022/01/14 02:08:27;;;;;;;41.97;19.02;;;5.00;99.90;;;;;;5073541;28;20036;-86
2022/01/14 02:10:52;;;;;;;65.10;22.92;;;4.90;99.90;;;;;;5056648;28;20037;-86
2022/01/14 02:13:19;;;;;;;66.63;22.67;;;4.90;99.90;;;;;;5056913;28;20094;-86
2022/01/14 02:15:51;;;;;;;59.88;21.90;;;4.90;99.90;;;;;;5074305;28;20044;-88
2022/01/14 02:18:39;;;;;;;58.53;22.20;;;4.90;99.90;;;;;;5056982;28;20116;-86
2022/01/14 02:23:56;;;;;;;54.22;20.30;;;4.90;99.90;;;;;;5059564;28;20044;-86
2022/01/14 02:26:22;;;;;;;;;;;4.90;99.90;;;;;;5073834;28;20370;-86
2022/01/14 02:28:49;;;;;;;43.03;18.08;;;4.90;99.90;;;;;;5056499;28;20242;-86
2022/01/14 02:31:16;;;;;;;66.28;22.02;;;4.80;99.90;;;;;;5056461;28;20380;-86
2022/01/14 02:33:42;;;;;;;71.30;23.83;;;4.80;99.90;;;;;;5056623;28;20024;-86
2022/01/14 02:36:08;;;;;;;54.97;21.05;;;4.80;99.90;;;;;;5072955;28;20047;-86
2022/01/14 02:38:34;;;;;;;62.83;22.02;;;4.80;99.90;;;;;;5072957;28;20040;-85
2022/01/14 02:41:00;;;;;;;53.47;20.45;;;4.80;99.90;;;;;;5072826;28;20032;-86
2022/01/14 02:43:26;;;;;;;54.83;20.80;;;4.90;99.90;;;;;;5023144;28;20119;-86
2022/01/14 02:45:55;;;;;;;57.30;23.38;;;4.80;99.90;;;;;;5056021;28;20366;-86
2022/01/14 02:48:26;;;;;;;50.97;19.52;;;4.80;99.90;;;;;;5039904;28;20041;-86
2022/01/14 02:55:50;;;;;;;40.23;18.77;;;4.80;99.90;;;;;;5073610;28;20540;-86
2022/01/14 02:58:17;;;;;;;51.80;20.80;;;4.80;99.90;;;;;;5039378;28;20354;-85
2022/01/14 03:00:42;;;;;;;41.60;18.65;;;4.90;99.90;;;;;;5039368;28;20041;-86
2022/01/14 03:03:10;;;;;;;46.55;19.92;;;4.80;99.90;;;;;;5074037;28;20024;-86
2022/01/14 03:05:36;;;;;;;70.60;23.60;;;4.80;99.90;;;;;;5072518;28;20045;-86
2022/01/14 03:08:02;;;;;;;63.42;21.88;;;4.80;99.90;;;;;;5072358;28;20536;-86
2022/01/14 03:10:27;;;;;;;43.65;18.90;;;4.90;99.90;;;;;;5073675;28;20032;-85
2022/01/14 03:12:53;;;;;;;59.13;21.98;;;4.90;99.90;;;;;;5039207;28;20077;-86
2022/01/14 03:15:19;;;;;;;50.75;20.08;;;4.90;99.90;;;;;;5038825;28;20044;-85
2022/01/14 03:17:46;;;;;;;62.30;22.13;;;4.90;99.90;;;;;;5072522;28;20094;-85
2022/01/14 03:20:34;;;;;;;54.97;19.85;;;4.90;99.90;;;;;;5072995;28;20497;-87
2022/01/14 03:23:05;;;;;;;51.95;21.02;;;4.90;99.90;;;;;;5072904;28;20119;-86
2022/01/14 03:25:50;;;;;;;61.22;22.88;;;4.90;99.90;;;;;;5024526;28;20037;-86
2022/01/14 03:28:21;;;;;;;56.33;20.15;;;4.90;99.90;;;;;;5055406;28;20025;-86
2022/01/14 03:30:48;;;;;;;78.13;25.27;;;4.90;99.90;;;;;;5072404;28;20384;-86
2022/01/14 03:33:14;;;;;;;49.30;19.42;;;4.90;99.90;;;;;;5073410;28;20610;-86
2022/01/14 03:35:40;;;;;;;63.20;20.75;;;4.90;99.90;;;;;;5038817;28;20032;-86
2022/01/14 03:38:06;;;;;;;65.57;24.08;;;4.90;99.90;;;;;;5073204;28;20094;-86
2022/01/14 03:40:32;;;;;;;54.20;21.33;;;4.90;99.90;;;;;;5055510;28;20115;-86
2022/01/14 03:42:57;;;;;;;82.75;24.50;;;4.90;99.90;;;;;;5073420;28;20061;-86
2022/01/14 03:45:23;;;;;;;70.88;22.73;;;4.90;99.90;;;;;;5055502;28;20492;-86
2022/01/14 03:47:48;;;;;;;71.22;24.45;;;4.90;99.90;;;;;;5039095;28;20381;-87
2022/01/14 03:50:14;;;;;;;68.22;21.58;;;4.90;99.90;;;;;;5055551;28;20089;-86
2022/01/14 03:52:40;;;;;;;62.17;23.17;;;4.90;99.90;;;;;;5055884;28;20484;-86
2022/01/14 03:55:06;;;;;;;70.18;23.13;;;4.90;99.90;;;;;;5071839;28;20099;-85
2022/01/14 03:57:31;;;;;;;55.63;21.52;;;4.90;99.90;;;;;;5056442;28;20044;-86
2022/01/14 03:59:57;;;;;;;78.28;24.00;;;4.90;99.90;;;;;;5073504;28;20076;-86
2022/01/14 04:02:23;;;;;;;66.30;23.73;;;4.90;99.90;;;;;;5060353;28;20039;-86
2022/01/14 04:04:49;;;;;;;79.05;23.50;;;4.90;99.90;;;;;;5077213;28;20044;-85
2022/01/14 04:07:14;;;;;;;67.82;22.52;;;4.90;99.90;;;;;;5073999;28;20037;-86
2022/01/14 04:09:41;;;;;;;63.60;23.38;;;4.90;99.90;;;;;;5044255;28;20068;-86
2022/01/14 04:12:09;;;;;;;80.72;23.77;;;4.80;99.90;;;;;;5080582;28;20041;-86
2022/01/14 04:17:16;;;;;;;65.57;22.50;;;4.80;99.90;;;;;;5061165;28;20369;-85
2022/01/14 04:19:41;;;;;;;65.75;22.75;;;4.80;99.90;;;;;;5060759;28;20075;-85
2022/01/14 04:22:07;;;;;;;53.67;21.50;;;4.80;99.90;;;;;;5078755;28;20052;-85
2022/01/14 04:24:32;;;;;;;65.78;22.85;;;4.80;99.90;;;;;;5079910;28;20075;-86
2022/01/14 04:26:58;;;;;;;64.00;22.60;;;4.80;99.90;;;;;;5042655;28;20040;-86
2022/01/14 04:29:24;;;;;;;58.38;22.25;;;4.80;99.90;;;;;;5076714;28;20033;-85
2022/01/14 04:31:49;;;;;;;60.90;22.23;;;4.80;99.90;;;;;;5075775;28;20470;-86
2022/01/14 04:34:16;;;;;;;52.35;21.35;;;4.80;99.90;;;;;;5042010;28;20040;-86
2022/01/14 04:36:42;;;;;;;69.18;22.13;;;4.80;99.90;;;;;;5076690;28;20054;-85
2022/01/14 04:39:09;;;;;;;63.15;22.85;;;4.80;99.90;;;;;;5076858;28;20163;-86
2022/01/14 04:41:35;;;;;;;79.75;25.70;;;4.70;99.90;;;;;;5076698;28;20029;-86
2022/01/14 04:44:01;;;;;;;80.57;22.35;;;4.80;99.90;;;;;;5042150;28;20377;-86
2022/01/14 04:48:53;;;;;;;71.43;26.42;;;4.80;99.90;;;;;;5042075;28;20460;-86
2022/01/14 04:51:21;;;;;;;62.80;22.50;;;4.90;99.90;;;;;;5075950;28;20473;-85
2022/01/14 04:53:48;;;;;;;85.25;22.95;;;4.80;99.90;;;;;;5042150;28;20067;-85
2022/01/14 04:56:13;;;;;;;85.10;24.15;;;4.80;99.90;;;;;;5058298;28;20071;-86
2022/01/14 04:58:39;;;;;;;59.60;21.30;;;4.80;99.90;;;;;;5041697;28;20072;-85
2022/01/14 05:01:05;;;;;;;47.33;20.13;;;4.80;99.90;;;;;;5057723;28;20500;-86
2022/01/14 05:03:30;;;;;;;53.70;19.13;;;4.80;99.90;;;;;;5075293;28;20063;-86
2022/01/14 05:05:59;;;;;;;67.18;20.98;;;4.80;99.90;;;;;;5076201;28;20048;-86
2022/01/14 05:08:34;;;;;;;75.63;22.45;;;4.80;99.90;;;;;;5076236;28;20036;-86
2022/01/14 05:11:14;;;;;;;60.35;20.60;;;4.80;99.90;;;;;;5043348;28;20198;-86
2022/01/14 05:13:40;;;;;;;64.00;24.23;;;4.80;99.90;;;;;;5043572;28;20487;-86
2022/01/14 05:16:05;;;;;;;58.70;21.02;;;4.80;99.90;;;;;;5058065;28;20040;-91
2022/01/14 05:18:31;;;;;;;63.45;20.83;;;4.80;99.90;;;;;;5074643;28;20052;-85
2022/01/14 05:20:56;;;;;;;61.78;22.52;;;4.90;99.90;;;;;;5061167;28;20044;-86
2022/01/14 05:23:24;;;;;;;65.32;21.90;;;4.90;99.90;;;;;;5054445;28;20037;-86
2022/01/14 05:25:49;;;;;;;51.15;20.23;;;4.90;99.90;;;;;;5071261;28;20186;-86
2022/01/14 05:28:15;;;;;;;69.65;23.95;;;4.90;99.90;;;;;;5055602;28;20055;-86
2022/01/14 05:30:41;;;;;;;67.65;21.92;;;4.90;99.90;;;;;;5055522;28;20367;-86
2022/01/14 05:33:07;;;;;;;73.50;23.45;;;4.90;99.90;;;;;;5037791;28;20047;-86
2022/01/14 05:35:32;;;;;;;58.80;21.52;;;4.90;99.90;;;;;;5054252;28;20374;-85
2022/01/14 05:37:58;;;;;;;62.42;22.02;;;4.90;99.90;;;;;;5070844;28;20465;-86
2022/01/14 05:40:26;;;;;;;72.40;22.02;;;4.90;99.90;;;;;;5037460;28;20041;-86
2022/01/14 05:42:52;;;;;;;61.50;21.02;;;4.90;99.90;;;;;;5070916;28;20481;-86
2022/01/14 05:45:17;;;;;;;75.15;22.58;;;5.00;99.90;;;;;;5037496;28;20047;-87
2022/01/14 05:47:44;;;;;;;53.92;20.90;;;5.00;99.90;;;;;;5055489;28;20390;-85
2022/01/14 05:50:19;;;;;;;61.35;20.30;;;5.00;99.90;;;;;;5055121;28;20033;-86
2022/01/14 05:52:45;;;;;;;52.85;19.83;;;5.00;99.90;;;;;;5054209;28;20071;-85
2022/01/14 05:55:17;;;;;;;49.13;21.48;;;4.90;99.90;;;;;;5054950;28;20219;-87
2022/01/14 05:57:43;;;;;;;70.75;22.00;;;5.00;99.90;;;;;;5054010;28;20075;-86
2022/01/14 06:00:15;;;;;;;64.18;22.45;;;5.00;99.90;;;;;;5054203;28;20067;-86
2022/01/14 06:02:41;;;;;;;90.50;23.48;;;5.00;99.90;;;;;;5053901;28;20054;-86
2022/01/14 06:05:07;;;;;;;59.45;22.10;;;5.00;99.90;;;;;;5041062;28;20066;-86
2022/01/14 06:07:32;;;;;;;73.90;22.83;;;5.00;99.90;;;;;;5048415;28;20033;-86
2022/01/14 06:09:58;;;;;;;57.08;21.65;;;5.00;99.90;;;;;;5068893;28;20040;-86
2022/01/14 06:12:24;;;;;;;69.30;22.13;;;4.90;99.90;;;;;;5054987;28;20037;-85
2022/01/14 06:14:49;;;;;;;72.20;21.17;;;4.90;99.90;;;;;;5070977;28;20057;-85
2022/01/14 06:17:15;;;;;;;46.60;19.00;;;4.90;99.90;;;;;;5072538;28;20053;-85
2022/01/14 06:19:41;;;;;;;53.92;18.77;;;4.90;99.90;;;;;;5072689;28;20037;-85
2022/01/14 06:22:06;;;;;;;60.53;19.40;;;4.80;99.90;;;;;;5054901;28;20045;-84
2022/01/14 06:24:32;;;;;;;47.28;17.85;;;4.80;99.90;;;;;;5091494;28;20036;-86
2022/01/14 06:26:57;;;;;;;37.22;18.13;;;4.80;99.90;;;;;;5076485;28;20115;-86
2022/01/14 06:29:23;;;;;;;77.47;21.75;;;4.70;99.90;;;;;;5076114;28;20036;-85
2022/01/14 06:31:49;;;;;;;53.63;20.38;;;4.80;99.90;;;;;;5052580;28;20473;-86
2022/01/14 06:34:15;;;;;;;61.10;19.75;;;4.80;99.90;;;;;;5049895;28;20040;-85
2022/01/14 06:36:44;;;;;;;56.10;18.58;;;4.80;99.90;;;;;;5086332;28;20384;-84
2022/01/14 06:39:10;;;;;;;105.05;25.48;;;4.70;99.90;;;;;;5073207;28;20036;-86
2022/01/14 06:41:37;;;;;;;66.70;21.23;;;4.80;99.90;;;;;;5072528;28;20033;-85
2022/01/14 06:44:04;;;;;;;76.68;21.70;;;4.80;99.90;;;;;;5072201;28;20028;-87
2022/01/14 06:46:29;;;;;;;82.18;22.80;;;4.70;99.90;;;;;;5058784;28;20396;-87
2022/01/14 06:48:55;;;;;;;78.60;21.58;;;4.70;99.90;;;;;;5093631;28;20036;-85
2022/01/14 06:51:21;;;;;;;62.33;20.00;;;4.70;99.90;;;;;;5093455;28;20032;-86
2022/01/14 06:53:47;;;;;;;60.10;19.35;;;4.70;99.90;;;;;;5057617;28;20384;-87
2022/01/14 06:56:16;;;;;;;65.65;20.27;;;4.70;99.90;;;;;;5072676;28;20411;-86
2022/01/14 06:58:43;;;;;;;73.45;21.23;;;4.70;99.90;;;;;;5072765;28;20043;-85
2022/01/14 07:01:09;;;;;;;51.47;20.10;;;4.70;99.90;;;;;;5075778;28;20036;-86
2022/01/14 07:03:35;;;;;;;47.58;17.30;;;4.70;99.90;;;;;;5053203;28;20383;-85
2022/01/14 07:06:01;;;;;;;62.65;18.63;;;4.70;99.90;;;;;;5074398;28;20028;-86
2022/01/14 07:08:27;;;;;;;63.33;20.27;;;4.70;99.90;;;;;;5086326;28;20425;-86
2022/01/14 07:10:53;;;;;;;54.88;19.35;;;4.70;99.90;;;;;;5067461;28;20127;-86
2022/01/14 07:13:19;;;;;;;59.55;20.25;;;4.70;99.90;;;;;;5084823;28;20032;-85
2022/01/14 07:15:48;;;;;;;65.63;19.70;;;4.70;99.90;;;;;;5084882;28;20423;-86
2022/01/14 07:18:16;;;;;;;88.03;20.55;;;4.70;99.90;;;;;;5092233;28;20039;-85
2022/01/14 07:20:42;;;;;;;53.85;19.13;;;4.70;99.90;;;;;;5069296;28;20049;-85
2022/01/14 07:23:07;;;;;;;56.25;20.13;;;4.70;99.90;;;;;;5055475;28;20055;-86
2022/01/14 07:25:33;;;;;;;91.40;21.50;;;4.70;99.90;;;;;;5073759;28;20040;-85
2022/01/14 07:27:59;;;;;;;72.75;20.63;;;4.70;99.90;;;;;;5072486;28;20421;-86
2022/01/14 07:30:24;;;;;;;68.43;20.88;;;4.70;99.90;;;;;;5072415;28;20461;-87
2022/01/14 07:32:50;;;;;;;72.57;20.25;;;4.70;99.90;;;;;;5073540;28;20477;-87
2022/01/14 07:35:16;;;;;;;73.68;22.08;;;4.70;99.90;;;;;;5073215;28;20072;-84
2022/01/14 07:37:42;;;;;;;70.70;22.33;;;4.70;99.90;;;;;;5073104;28;20044;-84
2022/01/14 07:40:08;;;;;;;50.92;18.65;;;4.70;99.90;;;;;;5056783;28;20420;-84
2022/01/14 08:00:55;;;;;;;65.32;21.58;;;4.50;99.90;;;;;;5074643;27;1291586;-85
2022/01/14 08:03:21;;;;;;;63.25;21.58;;;5.00;99.90;;;;;;5085946;28;20489;-86
2022/01/14 08:05:49;;;;;;;45.03;18.58;;;5.00;99.90;;;;;;5102950;28;20043;-84
2022/01/14 08:08:15;;;;;;;34.47;15.70;;;4.90;99.90;;;;;;5104606;28;20058;-87
2022/01/14 08:10:40;;;;;;;49.00;18.65;;;4.80;99.90;;;;;;5087071;28;20052;-85
2022/01/14 08:13:06;;;;;;;44.10;18.90;;;4.80;99.90;;;;;;5096450;28;20073;-86
2022/01/14 08:15:32;;;;;;;39.88;17.35;;;4.80;99.90;;;;;;5104610;28;20031;-84
2022/01/14 08:18:00;;;;;;;51.70;19.70;;;4.80;99.90;;;;;;5080057;28;20024;-87
2022/01/14 08:20:26;;;;;;;47.30;19.00;;;4.80;99.90;;;;;;5109941;28;20050;-85
2022/01/14 08:22:51;;;;;;;58.17;20.83;;;4.70;99.90;;;;;;5104550;28;20520;-85
2022/01/14 08:25:17;;;;;;;51.45;20.95;;;4.80;99.90;;;;;;5109168;28;20028;-85
2022/01/14 08:27:43;;;;;;;59.35;20.02;;;4.80;99.90;;;;;;5106021;28;20037;-85
2022/01/14 08:30:09;;;;;;;41.63;19.75;;;4.80;99.90;;;;;;5115685;28;20024;-85
2022/01/14 08:32:34;;;;;;;43.10;17.55;;;4.80;99.90;;;;;;5097540;28;20566;-85
2022/01/14 08:35:00;;;;;;;43.72;17.73;;;4.80;99.90;;;;;;5111037;28;20032;-85
2022/01/14 08:37:27;;;;;;;44.55;19.02;;;4.80;99.90;;;;;;5111891;28;20071;-85
2022/01/14 08:39:53;;;;;;;52.67;20.25;;;4.80;99.90;;;;;;5113688;28;20028;-85
2022/01/14 08:42:18;;;;;;;67.57;20.55;;;4.80;99.90;;;;;;5110372;28;20046;-85
2022/01/14 08:44:44;;;;;;;60.47;22.60;;;4.90;99.90;;;;;;5108988;28;20119;-85
2022/01/14 08:47:10;;;;;;;60.55;19.85;;;4.90;99.90;;;;;;5092059;28;20020;-85
2022/01/14 08:49:43;;;;;;;45.17;17.35;;;4.90;99.90;;;;;;5109005;28;20092;-86
2022/01/14 08:52:11;;;;;;;46.83;19.52;;;4.90;99.90;;;;;;5108315;28;20023;-85
2022/01/14 08:54:37;;;;;;;47.15;18.73;;;5.00;99.90;;;;;;5108883;28;20110;-84
2022/01/14 08:57:03;;;;;;;46.22;17.98;;;5.00;99.90;;;;;;5109711;28;20024;-87
2022/01/14 08:59:30;;;;;;;47.83;19.02;;;5.00;99.90;;;;;;5107753;28;20105;-84
2022/01/14 09:01:57;;;;;;;57.92;21.27;;;5.00;99.90;;;;;;5093351;28;20130;-84
2022/01/14 09:04:22;;;;;;;59.38;22.00;;;5.00;99.90;;;;;;5094552;28;20036;-85
2022/01/14 09:06:48;;;;;;;50.33;20.58;;;5.00;99.90;;;;;;5094805;28;20034;-85
2022/01/14 09:09:14;;;;;;;54.45;20.55;;;5.00;99.90;;;;;;5094242;28;20031;-85
2022/01/14 09:11:40;;;;;;;67.07;22.58;;;5.00;99.90;;;;;;5094531;28;20043;-86
2022/01/14 09:14:06;;;;;;;52.97;18.92;;;5.00;99.90;;;;;;5077750;28;20436;-85
2022/01/14 09:16:32;;;;;;;50.40;20.05;;;5.00;99.90;;;;;;5095208;28;20100;-85
2022/01/14 09:18:58;;;;;;;54.72;20.15;;;5.00;99.90;;;;;;5094193;28;20111;-85
2022/01/14 09:21:24;;;;;;;42.83;18.50;;;5.00;99.90;;;;;;5093874;28;20388;-85
2022/01/14 09:24:12;;;;;;;46.22;18.42;;;5.00;99.90;;;;;;5094506;28;20111;-85
2022/01/14 09:26:38;;;;;;;58.85;21.23;;;5.00;99.90;;;;;;5095355;28;20036;-86
2022/01/14 09:29:06;;;;;;;47.72;19.38;;;5.00;99.90;;;;;;5095591;28;20028;-86
2022/01/14 09:31:32;;;;;;;63.58;20.85;;;5.00;99.90;;;;;;5078559;28;20053;-84
2022/01/14 09:33:58;;;;;;;65.93;20.60;;;5.00;99.90;;;;;;5058282;28;20029;-83
2022/01/14 09:36:25;;;;;;;54.45;22.17;;;5.00;99.90;;;;;;5075050;28;20051;-85
2022/01/14 09:38:50;;;;;;;56.08;20.33;;;5.00;99.90;;;;;;5073458;28;20024;-84
2022/01/14 09:41:18;;;;;;;60.47;20.73;;;5.00;99.90;;;;;;5074581;28;20043;-85
2022/01/14 09:43:44;;;;;;;49.03;19.60;;;5.10;99.90;;;;;;5057040;28;20047;-85
2022/01/14 09:46:11;;;;;;;51.67;20.15;;;5.10;99.90;;;;;;5085555;28;20059;-85
2022/01/14 09:48:37;;;;;;;63.33;21.63;;;5.10;99.90;;;;;;5086440;28;20411;-85
2022/01/14 09:51:03;;;;;;;57.60;21.45;;;5.10;99.90;;;;;;5068636;28;20107;-85
2022/01/14 09:53:30;;;;;;;51.78;20.13;;;5.10;99.90;;;;;;5088173;28;20406;-85
2022/01/14 09:55:56;;;;;;;54.55;20.30;;;5.10;99.90;;;;;;5088705;28;20093;-85
2022/01/14 09:58:27;;;;;;;54.08;21.08;;;5.10;99.90;;;;;;5090176;28;20078;-85
2022/01/14 10:01:15;;;;;;;46.50;19.58;;;5.10;99.90;;;;;;5086445;28;20052;-86
2022/01/14 10:04:12;;;;;;;63.78;22.48;;;5.10;99.90;;;;;;5092181;28;20457;-85
2022/01/14 10:06:58;;;;;;;54.13;21.25;;;5.20;99.90;;;;;;5089958;28;20566;-85
2022/01/14 10:09:29;;;;;;;64.57;23.38;;;5.10;99.90;;;;;;5076824;28;20469;-86
2022/01/14 10:12:10;;;;;;;50.78;21.77;;;5.20;99.90;;;;;;5089905;28;20532;-84
2022/01/14 10:14:39;;;;;;;45.22;20.23;;;5.20;99.90;;;;;;5069582;28;20033;-86
2022/01/14 10:17:10;;;;;;;48.45;19.45;;;5.20;99.90;;;;;;5090135;28;20024;-85
2022/01/14 10:19:41;;;;;;;45.22;19.80;;;5.20;99.90;;;;;;5085219;28;20489;-87
2022/01/14 10:22:23;;;;;;;42.13;19.00;;;5.20;99.90;;;;;;5095208;28;20024;-86
2022/01/14 10:25:03;;;;;;;45.30;20.35;;;5.20;99.90;;;;;;5093290;28;20024;-86
2022/01/14 10:27:37;;;;;;;48.53;19.67;;;5.30;99.90;;;;;;5093899;28;20035;-86
2022/01/14 10:30:24;;;;;;;39.90;18.95;;;5.30;99.90;;;;;;5093187;28;20492;-86
2022/01/14 10:33:20;;;;;;;55.00;21.42;;;5.30;99.90;;;;;;5082631;28;20101;-86
2022/01/14 10:35:49;;;;;;;52.78;21.10;;;5.30;99.90;;;;;;5085421;28;20074;-86
2022/01/14 10:38:23;;;;;;;44.42;19.42;;;5.30;99.90;;;;;;5088359;28;20025;-87
2022/01/14 10:40:51;;;;;;;42.35;19.90;;;5.30;99.90;;;;;;5077469;28;20485;-86
2022/01/14 10:43:22;;;;;;;45.67;19.85;;;5.30;99.90;;;;;;5082419;28;20077;-86
2022/01/14 10:45:48;;;;;;;;;;;5.30;99.90;;;;;;5090282;28;20121;-85
2022/01/14 10:48:32;;;;;;;42.63;20.10;;;5.30;99.90;;;;;;5089232;28;19954;-87
2022/01/14 10:51:04;;;;;;;47.05;21.52;;;5.30;99.90;;;;;;5084026;28;20048;-86
2022/01/14 10:53:37;;;;;;;46.78;21.20;;;5.30;99.90;;;;;;5085548;28;20013;-88
2022/01/14 10:56:07;;;;;;;43.33;19.52;;;5.30;99.90;;;;;;5090788;28;20517;-86
2022/01/14 10:58:36;;;;;;;45.33;21.93;;;5.30;99.90;;;;;;5087083;28;20111;-86
2022/01/14 11:01:03;;;;;;;48.67;21.10;;;5.30;99.90;;;;;;5082020;28;20121;-86
2022/01/14 11:03:53;;;;;;;41.63;21.08;;;5.30;99.90;;;;;;5086854;28;20104;-86
2022/01/14 11:06:28;;;;;;;44.88;20.63;;;5.30;99.90;;;;;;5083849;28;20477;-85
2022/01/14 11:09:00;;;;;;;45.75;22.05;;;5.30;99.90;;;;;;5086507;28;20043;-87
2022/01/14 11:11:31;;;;;;;39.38;20.08;;;5.40;99.90;;;;;;5091065;28;20405;-86
2022/01/14 11:13:57;;;;;;;43.90;20.10;;;5.50;99.90;;;;;;5092876;28;20028;-86
2022/01/14 11:16:23;;;;;;;39.55;20.35;;;5.40;99.90;;;;;;5092983;28;20020;-86
2022/01/14 11:18:50;;;;;;;45.25;21.23;;;5.40;99.90;;;;;;5092489;28;20058;-86
2022/01/14 11:24:04;;;;;;;43.28;20.67;;;5.50;99.90;;;;;;5077972;28;20055;-86
2022/01/14 11:26:34;;;;;;;46.05;21.33;;;5.50;99.90;;;;;;5091609;28;20111;-86
2022/01/14 11:29:15;;;;;;;41.25;20.88;;;5.50;99.90;;;;;;5093475;28;20461;-84
2022/01/14 11:31:42;;;;;;;41.97;21.35;;;5.60;99.90;;;;;;5091750;28;20388;-86
2022/01/14 11:34:29;;;;;;;53.33;23.30;;;5.60;99.90;;;;;;5075270;28;20031;-87
2022/01/14 11:36:58;;;;;;;46.20;21.70;;;5.60;99.90;;;;;;5078876;28;20032;-86
2022/01/14 11:39:25;;;;;;;47.13;21.52;;;5.60;99.90;;;;;;5093082;28;20506;-86
2022/01/14 11:42:05;;;;;;;48.15;22.05;;;5.60;99.90;;;;;;5075643;28;20461;-86
2022/01/14 11:44:44;;;;;;;47.33;20.63;;;5.60;99.90;;;;;;5093712;28;20407;-86
2022/01/14 11:47:25;;;;;;;51.05;22.95;;;5.60;99.90;;;;;;5092280;28;20027;-85
2022/01/14 11:49:58;;;;;;;55.15;21.10;;;5.60;99.90;;;;;;5093196;28;20036;-85
2022/01/14 11:52:36;;;;;;;52.35;22.00;;;5.60;99.90;;;;;;5092892;28;20032;-86
2022/01/14 11:55:23;;;;;;;54.47;22.77;;;5.60;99.90;;;;;;5093936;28;20032;-85
2022/01/14 11:57:50;;;;;;;44.92;20.70;;;5.60;99.90;;;;;;5081472;28;20080;-85
2022/01/14 12:00:30;;;;;;;38.47;19.65;;;5.70;99.90;;;;;;5091390;28;20181;-86
2022/01/14 12:03:07;;;;;;;47.63;21.83;;;5.60;99.90;;;;;;5088655;28;20469;-87
2022/01/14 12:05:35;;;;;;;43.22;20.88;;;5.60;99.90;;;;;;5071294;28;20033;-87
2022/01/14 12:10:38;;;;;;;47.45;22.45;;;5.60;99.90;;;;;;5074538;28;20028;-87
2022/01/14 12:13:18;;;;;;;50.72;24.02;;;5.60;99.90;;;;;;5075732;28;20031;-87
2022/01/14 12:16:09;;;;;;;45.38;20.50;;;5.60;99.90;;;;;;5079418;28;20028;-87
2022/01/14 12:18:56;;;;;;;46.15;22.42;;;5.70;99.90;;;;;;5078030;28;20128;-86
2022/01/14 12:21:44;;;;;;;44.38;20.05;;;5.70;99.90;;;;;;5077863;28;20032;-89
2022/01/14 12:24:19;;;;;;;45.63;21.90;;;5.70;99.90;;;;;;5076898;28;20062;-87
2022/01/14 12:27:10;;;;;;;50.22;22.52;;;5.70;99.90;;;;;;5076442;28;20029;-88
2022/01/14 12:29:42;;;;;;;47.38;22.77;;;5.70;99.90;;;;;;5072470;28;20128;-87
2022/01/14 12:32:19;;;;;;;44.75;21.85;;;5.70;99.90;;;;;;5071794;28;20051;-87
2022/01/14 12:34:48;;;;;;;45.40;21.80;;;5.70;99.90;;;;;;5071855;28;20064;-86
2022/01/14 12:37:29;;;;;;;39.55;21.25;;;5.70;99.90;;;;;;5075657;28;20063;-87
2022/01/14 12:39:57;;;;;;;49.35;22.65;;;5.80;99.90;;;;;;5075691;28;20020;-87
2022/01/14 12:42:24;;;;;;;50.83;23.42;;;5.80;99.90;;;;;;5077615;28;20035;-89
2022/01/14 12:44:52;;;;;;;43.65;21.02;;;5.80;99.90;;;;;;5058465;28;20063;-87
2022/01/14 12:47:26;;;;;;;42.72;21.83;;;5.80;99.90;;;;;;5076399;28;20107;-87
2022/01/14 12:49:53;;;;;;;52.50;22.92;;;5.80;99.90;;;;;;5075275;28;20139;-88
2022/01/14 12:52:40;;;;;;;50.20;22.75;;;5.80;99.90;;;;;;5077401;28;20052;-87
2022/01/14 12:55:08;;;;;;;51.60;23.85;;;5.80;99.90;;;;;;5089592;28;20500;-88
2022/01/14 12:57:35;;;;;;;46.03;21.00;;;5.80;99.90;;;;;;5094660;28;20165;-88
2022/01/14 13:00:02;;;;;;;46.30;22.20;;;5.80;99.90;;;;;;5094767;28;20044;-88
2022/01/14 13:02:29;;;;;;;49.80;22.83;;;5.80;99.90;;;;;;5096158;28;20115;-87
2022/01/14 13:05:02;;;;;;;42.90;21.00;;;5.80;99.90;;;;;;5077908;28;20055;-87
2022/01/14 13:07:28;;;;;;;43.85;21.10;;;5.80;99.90;;;;;;5087366;28;20595;-87
2022/01/14 13:09:54;;;;;;;43.63;22.00;;;5.80;99.90;;;;;;5089981;28;20024;-88
2022/01/14 13:12:23;;;;;;;42.92;21.80;;;5.80;99.90;;;;;;5053210;28;20020;-88
2022/01/14 13:14:54;;;;;;;41.60;22.23;;;5.80;99.90;;;;;;5096144;28;20020;-88
2022/01/14 13:17:26;;;;;;;50.75;24.80;;;5.80;99.90;;;;;;5096187;28;20021;-88
2022/01/14 13:19:57;;;;;;;49.80;23.10;;;5.80;99.90;;;;;;5095905;28;20081;-87
2022/01/14 13:22:23;;;;;;;48.15;22.25;;;5.80;99.90;;;;;;5095978;28;20112;-87
2022/01/14 13:24:58;;;;;;;52.30;23.05;;;5.80;99.90;;;;;;5094504;28;20407;-87
2022/01/14 13:27:30;;;;;;;40.42;20.67;;;5.90;99.90;;;;;;5096133;28;20024;-87
2022/01/14 13:29:58;;;;;;;42.78;21.70;;;5.90;99.90;;;;;;5095982;28;20028;-88
2022/01/14 13:32:30;;;;;;;45.25;23.30;;;5.90;99.90;;;;;;5096199;28;20020;-88